createdAt,value
2023-11-27T00:01:45.943Z,-1.75
2023-11-27T00:04:17.986Z,-1.84
2023-11-27T00:06:49.771Z,-1.37
2023-11-27T00:09:22.697Z,-1.51
2023-11-27T00:11:54.492Z,-1.54
2023-11-27T00:14:26.268Z,-1.53
2023-11-27T00:16:58.175Z,-1.56
2023-11-27T00:19:29.979Z,-1.52
2023-11-27T00:22:01.772Z,-1.52
2023-11-27T00:24:33.627Z,-1.47
2023-11-27T00:27:05.476Z,-1.58
2023-11-27T00:29:37.391Z,-1.67
2023-11-27T00:32:10.359Z,-1.58
2023-11-27T00:34:42.492Z,-1.81
2023-11-27T00:37:14.321Z,-1.69
2023-11-27T00:39:46.188Z,-1.55
2023-11-27T00:42:19.369Z,-1.42
2023-11-27T00:44:51.124Z,-1.39
2023-11-27T00:47:22.896Z,-1.51
2023-11-27T00:49:54.829Z,-1.52
2023-11-27T00:52:26.647Z,-1.62
2023-11-27T00:54:58.461Z,-1.56
2023-11-27T00:57:30.355Z,-1.63
2023-11-27T01:00:02.142Z,-1.71
2023-11-27T01:02:34.023Z,-1.48
2023-11-27T01:05:08.933Z,-1.39
2023-11-27T01:07:40.904Z,-1.80
2023-11-27T01:10:12.668Z,-1.62
2023-11-27T01:12:47.455Z,-1.55
2023-11-27T01:15:20.850Z,-1.61
2023-11-27T01:17:52.626Z,-1.53
2023-11-27T01:20:24.400Z,-1.52
2023-11-27T01:22:56.364Z,-1.58
2023-11-27T01:25:28.125Z,-1.46
2023-11-27T01:28:00.014Z,-1.71
2023-11-27T01:30:31.824Z,-1.71
2023-11-27T01:33:05.698Z,-1.74
2023-11-27T01:35:37.639Z,-1.71
2023-11-27T01:38:09.400Z,-1.64
2023-11-27T01:40:41.213Z,-1.85
2023-11-27T01:43:16.879Z,-1.59
2023-11-27T01:45:50.583Z,-1.83
2023-11-27T01:48:22.392Z,-1.58
2023-11-27T01:50:54.223Z,-1.59
2023-11-27T01:53:26.083Z,-1.67
2023-11-27T01:55:57.894Z,-1.81
2023-11-27T01:58:29.894Z,-1.79
2023-11-27T02:01:01.879Z,-1.70
2023-11-27T02:03:33.821Z,-1.64
2023-11-27T02:06:06.041Z,-1.55
2023-11-27T02:08:37.835Z,-1.61
2023-11-27T02:11:09.622Z,-1.79
2023-11-27T02:13:41.387Z,-1.65
2023-11-27T02:16:13.303Z,-1.73
2023-11-27T02:18:45.241Z,-1.62
2023-11-27T02:21:19.071Z,-1.61
2023-11-27T02:23:50.930Z,-1.74
2023-11-27T02:26:23.098Z,-1.82
2023-11-27T02:28:55.926Z,-1.88
2023-11-27T02:31:29.248Z,-1.89
2023-11-27T02:34:01.628Z,-1.88
2023-11-27T02:36:39.917Z,-1.92
2023-11-27T02:39:11.798Z,-1.77
2023-11-27T02:41:43.605Z,-1.73
2023-11-27T02:44:15.738Z,-1.63
2023-11-27T02:46:47.941Z,-1.92
2023-11-27T02:49:19.787Z,-1.80
2023-11-27T02:51:51.595Z,-1.86
2023-11-27T02:54:23.453Z,-1.75
2023-11-27T02:56:55.274Z,-2.08
2023-11-27T02:59:27.054Z,-1.96
2023-11-27T03:01:58.902Z,-1.80
2023-11-27T03:04:32.202Z,-1.95
2023-11-27T03:07:04.227Z,-2.03
2023-11-27T03:09:36.016Z,-1.82
2023-11-27T03:12:08.034Z,-1.85
2023-11-27T03:14:39.917Z,-2.11
2023-11-27T03:17:11.739Z,-1.80
2023-11-27T03:19:47.968Z,-2.17
2023-11-27T03:22:21.876Z,-1.90
2023-11-27T03:24:53.734Z,-1.88
2023-11-27T03:27:25.570Z,-1.59
2023-11-27T03:29:59.149Z,-1.67
2023-11-27T03:32:32.269Z,-1.79
2023-11-27T03:35:05.945Z,-2.32
2023-11-27T03:37:37.837Z,-2.04
2023-11-27T03:40:10.020Z,-2.21
2023-11-27T03:42:42.509Z,-1.79
2023-11-27T03:45:14.357Z,-2.31
2023-11-27T03:47:46.173Z,-1.85
2023-11-27T03:50:18.043Z,-1.83
2023-11-27T03:52:49.883Z,-1.89
2023-11-27T03:55:21.649Z,-2.06
2023-11-27T03:57:53.482Z,-2.29
2023-11-27T04:00:26.791Z,-1.74
2023-11-27T04:02:58.601Z,-1.95
2023-11-27T04:05:30.391Z,-2.26
2023-11-27T04:08:02.433Z,-1.85
2023-11-27T04:10:34.287Z,-2.09
2023-11-27T04:13:06.380Z,-2.15
2023-11-27T04:15:38.305Z,-1.87
2023-11-27T04:18:10.525Z,-2.05
2023-11-27T04:20:42.473Z,-1.97
2023-11-27T04:23:14.277Z,-2.18
2023-11-27T04:25:46.026Z,-2.12
2023-11-27T04:28:17.826Z,-2.24
2023-11-27T04:30:49.708Z,-2.20
2023-11-27T04:33:21.566Z,-2.00
2023-11-27T04:35:55.162Z,-2.21
2023-11-27T04:38:27.022Z,-2.00
2023-11-27T04:40:58.804Z,-2.12
2023-11-27T04:43:30.623Z,-2.28
2023-11-27T04:46:02.491Z,-2.07
2023-11-27T04:48:35.089Z,-2.06
2023-11-27T04:51:07.296Z,-1.98
2023-11-27T04:53:39.061Z,-2.10
2023-11-27T04:56:12.089Z,-2.34
2023-11-27T04:58:45.060Z,-2.22
2023-11-27T05:01:16.888Z,-2.12
2023-11-27T05:03:48.782Z,-2.03
2023-11-27T05:06:20.620Z,-2.20
2023-11-27T05:08:52.394Z,-2.33
2023-11-27T05:11:25.097Z,-2.19
2023-11-27T05:13:56.923Z,-2.31
2023-11-27T05:16:28.744Z,-2.03
2023-11-27T05:19:00.705Z,-2.24
2023-11-27T05:21:32.500Z,-2.13
2023-11-27T05:24:04.476Z,-2.19
2023-11-27T05:26:36.248Z,-2.10
2023-11-27T05:29:08.545Z,-2.16
2023-11-27T05:31:40.452Z,-2.13
2023-11-27T05:34:12.522Z,-2.09
2023-11-27T05:36:44.758Z,-2.08
2023-11-27T05:39:16.973Z,-2.35
2023-11-27T05:41:50.946Z,-2.27
2023-11-27T05:44:22.718Z,-1.96
2023-11-27T05:46:54.639Z,-2.27
2023-11-27T05:49:26.589Z,-2.08
2023-11-27T05:51:59.303Z,-2.13
2023-11-27T05:54:31.323Z,-1.96
2023-11-27T05:57:03.843Z,-2.06
2023-11-27T05:59:35.613Z,-2.00
2023-11-27T06:02:07.886Z,-2.03
2023-11-27T06:04:39.682Z,-1.91
2023-11-27T06:07:11.466Z,-2.03
2023-11-27T06:09:43.833Z,-1.97
2023-11-27T06:12:16.067Z,-2.16
2023-11-27T06:14:47.836Z,-1.99
2023-11-27T06:17:19.784Z,-2.00
2023-11-27T06:19:51.567Z,-2.09
2023-11-27T06:22:24.794Z,-2.16
2023-11-27T06:24:58.088Z,-2.18
2023-11-27T06:27:30.319Z,-1.98
2023-11-27T06:30:02.132Z,-2.29
2023-11-27T06:32:35.318Z,-2.22
2023-11-27T06:35:07.655Z,-2.06
2023-11-27T06:37:39.436Z,-1.98
2023-11-27T06:40:11.415Z,-2.40
2023-11-27T06:42:43.232Z,-2.13
2023-11-27T06:45:15.052Z,-2.25
2023-11-27T06:47:46.854Z,-2.40
2023-11-27T06:50:22.305Z,-2.13
2023-11-27T06:52:54.231Z,-2.10
2023-11-27T06:55:26.010Z,-2.01
2023-11-27T07:00:33.160Z,-2.56
2023-11-27T07:03:05.220Z,-1.99
2023-11-27T07:05:37.179Z,-1.95
2023-11-27T07:08:09.285Z,-2.01
2023-11-27T07:10:41.305Z,-1.95
2023-11-27T07:13:13.388Z,-2.09
2023-11-27T07:15:45.202Z,-2.10
2023-11-27T07:18:20.055Z,-2.41
2023-11-27T07:20:53.382Z,-2.15
2023-11-27T07:23:28.307Z,-1.68
2023-11-27T07:26:00.133Z,-1.84
2023-11-27T07:28:31.964Z,-1.84
2023-11-27T07:31:04.460Z,-1.85
2023-11-27T07:33:36.286Z,-1.74
2023-11-27T07:36:08.689Z,-1.82
2023-11-27T07:38:42.161Z,-1.86
2023-11-27T07:41:14.460Z,-1.70
2023-11-27T07:43:46.385Z,-1.82
2023-11-27T07:46:18.477Z,-1.70
2023-11-27T07:48:50.433Z,-1.89
2023-11-27T07:51:22.189Z,-1.86
2023-11-27T07:53:53.939Z,-2.11
2023-11-27T07:56:29.885Z,-1.67
2023-11-27T07:59:01.735Z,-1.63
2023-11-27T08:01:33.578Z,-1.93
2023-11-27T08:04:05.551Z,-1.94
2023-11-27T08:06:37.487Z,-1.70
2023-11-27T08:09:09.377Z,-1.84
2023-11-27T08:11:43.380Z,-1.77
2023-11-27T08:14:15.238Z,-1.54
2023-11-27T08:16:49.075Z,-1.38
2023-11-27T08:19:22.340Z,-1.75
2023-11-27T08:21:55.178Z,-1.75
2023-11-27T08:24:26.967Z,-1.52
2023-11-27T08:26:59.089Z,-1.54
2023-11-27T08:29:32.308Z,-1.62
2023-11-27T08:32:04.497Z,-1.56
2023-11-27T08:34:36.319Z,-1.60
2023-11-27T08:37:11.019Z,-1.57
2023-11-27T08:39:42.866Z,-1.26
2023-11-27T08:42:14.650Z,-1.63
2023-11-27T08:44:46.416Z,-1.33
2023-11-27T08:47:18.720Z,-1.17
2023-11-27T08:49:50.549Z,-1.17
2023-11-27T08:52:22.348Z,-1.29
2023-11-27T08:54:56.730Z,-1.09
2023-11-27T08:57:28.585Z,-1.39
2023-11-27T09:00:00.406Z,-1.20
2023-11-27T09:02:32.342Z,-1.41
2023-11-27T09:05:05.060Z,-1.66
2023-11-27T09:07:36.902Z,-1.55
2023-11-27T09:10:09.277Z,-1.61
2023-11-27T09:12:41.062Z,-1.26
2023-11-27T09:15:12.830Z,-1.29
2023-11-27T09:17:45.674Z,-1.20
2023-11-27T09:20:17.937Z,-1.22
2023-11-27T09:22:49.779Z,-1.27
2023-11-27T09:25:22.341Z,-1.08
2023-11-27T09:27:54.132Z,-1.01
2023-11-27T09:30:26.015Z,-0.92
2023-11-27T09:32:57.844Z,-1.03
2023-11-27T09:35:29.703Z,-1.02
2023-11-27T09:38:02.136Z,-1.14
2023-11-27T09:40:40.559Z,-1.06
2023-11-27T09:43:12.581Z,-1.34
2023-11-27T09:45:44.372Z,-1.03
2023-11-27T09:48:18.644Z,-1.11
2023-11-27T09:50:55.838Z,-1.06
2023-11-27T09:53:31.051Z,-0.79
2023-11-27T09:56:04.237Z,-0.69
2023-11-27T09:58:44.076Z,-0.87
2023-11-27T10:01:17.112Z,-0.81
2023-11-27T10:03:49.314Z,-0.85
2023-11-27T10:06:21.250Z,-0.78
2023-11-27T10:09:09.246Z,-0.64
2023-11-27T10:11:43.051Z,-1.12
2023-11-27T10:14:34.995Z,-0.40
2023-11-27T10:17:07.475Z,-0.22
2023-11-27T10:19:41.478Z,-0.34
2023-11-27T10:22:13.486Z,-0.12
2023-11-27T10:24:45.822Z,-0.25
2023-11-27T10:27:17.626Z,-0.41
2023-11-27T10:29:49.452Z,-0.50
2023-11-27T10:32:26.827Z,-0.27
2023-11-27T10:34:59.128Z,-0.50
2023-11-27T10:37:36.952Z,-0.60
2023-11-27T10:40:15.751Z,-0.19
2023-11-27T10:42:52.101Z,-0.26
2023-11-27T10:45:23.919Z,-0.14
2023-11-27T10:47:58.289Z,0.01
2023-11-27T10:50:35.570Z,-0.07
2023-11-27T10:53:08.556Z,-0.26
2023-11-27T10:55:43.595Z,-0.39
2023-11-27T10:58:15.665Z,-0.32
2023-11-27T11:00:57.608Z,-0.26
2023-11-27T11:03:33.800Z,-0.53
2023-11-27T11:06:09.831Z,-0.06
2023-11-27T11:08:44.949Z,0.05
2023-11-27T11:11:19.183Z,0.04
2023-11-27T11:13:52.547Z,-0.41
2023-11-27T11:16:41.737Z,-0.19
2023-11-27T11:19:38.288Z,-0.19
2023-11-27T11:22:10.047Z,-0.28
2023-11-27T11:25:21.470Z,0.04
2023-11-27T11:28:07.472Z,-0.15
2023-11-27T11:30:39.558Z,-0.04
2023-11-27T11:33:20.052Z,-0.02
2023-11-27T11:35:52.038Z,-0.13
2023-11-27T11:38:24.184Z,0.08
2023-11-27T11:40:57.743Z,0.08
2023-11-27T11:43:29.912Z,-0.12
2023-11-27T11:46:01.901Z,0.02
2023-11-27T11:48:38.413Z,-0.35
2023-11-27T11:51:17.167Z,0.10
2023-11-27T11:53:53.335Z,-0.12
2023-11-27T11:56:30.271Z,0.05
2023-11-27T11:59:11.251Z,0.05
2023-11-27T12:01:43.082Z,-0.16
2023-11-27T12:04:15.341Z,-0.61
2023-11-27T12:06:47.434Z,-0.14
2023-11-27T12:09:20.158Z,-0.47
2023-11-27T12:11:59.286Z,-0.44
2023-11-27T12:14:34.124Z,-0.33
2023-11-27T12:17:08.718Z,-0.36
2023-11-27T12:19:40.716Z,-0.63
2023-11-27T12:22:13.175Z,-0.72
2023-11-27T12:24:47.308Z,-0.87
2023-11-27T12:27:19.123Z,-0.58
2023-11-27T12:29:51.182Z,-0.44
2023-11-27T12:32:26.212Z,-0.46
2023-11-27T12:34:58.111Z,-0.54
2023-11-27T12:37:30.923Z,-0.75
2023-11-27T12:40:03.908Z,-0.74
2023-11-27T12:42:37.407Z,-0.55
2023-11-27T12:45:09.962Z,-0.53
2023-11-27T12:47:51.404Z,-0.61
2023-11-27T12:50:30.463Z,-0.64
2023-11-27T12:53:08.558Z,-0.42
2023-11-27T12:55:49.083Z,-0.40
2023-11-27T12:58:22.796Z,-0.66
2023-11-27T13:00:57.694Z,-0.44
2023-11-27T13:03:32.302Z,-0.40
2023-11-27T13:06:04.570Z,-0.66
2023-11-27T13:08:36.342Z,-0.84
2023-11-27T13:11:08.133Z,-0.58
2023-11-27T13:13:41.033Z,-0.67
2023-11-27T13:16:18.707Z,-0.58
2023-11-27T13:18:50.603Z,-0.55
2023-11-27T13:21:23.182Z,-0.60
2023-11-27T13:23:54.965Z,-0.77
2023-11-27T13:26:29.902Z,-0.63
2023-11-27T13:29:02.081Z,-0.73
2023-11-27T13:31:38.249Z,-0.92
2023-11-27T13:34:33.380Z,-1.02
2023-11-27T13:37:11.832Z,-0.93
2023-11-27T13:39:55.970Z,-0.96
2023-11-27T13:42:32.356Z,-0.86
2023-11-27T13:45:05.057Z,-0.96
2023-11-27T13:47:37.798Z,-0.87
2023-11-27T13:50:10.858Z,-0.81
2023-11-27T13:52:44.158Z,-1.18
2023-11-27T13:55:19.172Z,-1.24
2023-11-27T13:57:53.336Z,-1.00
2023-11-27T14:00:27.835Z,-0.94
2023-11-27T14:03:03.849Z,-1.13
2023-11-27T14:05:38.935Z,-1.07
2023-11-27T14:08:16.726Z,-0.98
2023-11-27T14:11:09.805Z,-1.07
2023-11-27T14:13:47.608Z,-1.06
2023-11-27T14:16:21.419Z,-1.11
2023-11-27T14:19:13.275Z,-1.10
2023-11-27T14:22:03.499Z,-1.04
2023-11-27T14:24:55.531Z,-0.96
2023-11-27T14:27:40.888Z,-1.02
2023-11-27T14:30:16.277Z,-1.10
2023-11-27T14:32:48.821Z,-1.01
2023-11-27T14:35:21.427Z,-1.02
2023-11-27T14:37:53.518Z,-1.06
2023-11-27T14:40:32.585Z,-1.01
2023-11-27T14:43:04.483Z,-1.27
2023-11-27T14:45:43.706Z,-1.01
2023-11-27T14:48:17.134Z,-1.14
2023-11-27T14:50:49.000Z,-1.13
2023-11-27T14:53:22.599Z,-0.96
2023-11-27T14:55:54.420Z,-0.97
2023-11-27T14:58:26.607Z,-0.97
2023-11-27T15:01:03.292Z,-1.08
2023-11-27T15:03:36.140Z,-0.97
2023-11-27T15:06:09.132Z,-1.16
2023-11-27T15:08:40.955Z,-1.01
2023-11-27T15:11:14.056Z,-1.29
2023-11-27T15:13:46.772Z,-1.06
2023-11-27T15:16:21.719Z,-1.18
2023-11-27T15:18:53.854Z,-1.16
2023-11-27T15:21:25.840Z,-1.21
2023-11-27T15:23:57.681Z,-0.87
2023-11-27T15:26:29.425Z,-0.83
2023-11-27T15:29:01.245Z,-0.87
2023-11-27T15:31:36.711Z,-1.15
2023-11-27T15:34:11.359Z,-0.85
2023-11-27T15:36:43.154Z,-0.96
2023-11-27T15:39:24.565Z,-0.94
2023-11-27T15:41:57.380Z,-1.10
2023-11-27T15:44:29.207Z,-1.18
2023-11-27T15:47:02.047Z,-1.19
2023-11-27T15:49:34.459Z,-1.01
2023-11-27T15:52:07.900Z,-1.14
2023-11-27T15:54:40.218Z,-1.09
2023-11-27T15:57:12.134Z,-1.07
2023-11-27T15:59:44.806Z,-1.10
2023-11-27T16:02:16.785Z,-1.18
2023-11-27T16:04:48.652Z,-1.18
2023-11-27T16:07:22.096Z,-1.13
2023-11-27T16:09:53.879Z,-0.85
2023-11-27T16:12:29.258Z,-0.95
2023-11-27T16:15:01.035Z,-0.91
2023-11-27T16:17:47.434Z,-1.06
2023-11-27T16:20:26.074Z,-0.97
2023-11-27T16:22:58.061Z,-1.10
2023-11-27T16:25:29.858Z,-0.90
2023-11-27T16:28:05.477Z,-1.07
2023-11-27T16:30:37.319Z,-1.02
2023-11-27T16:33:09.442Z,-0.98
2023-11-27T16:35:42.728Z,-0.98
2023-11-27T16:38:14.605Z,-1.09
2023-11-27T16:40:46.623Z,-1.21
2023-11-27T16:43:18.514Z,-0.89
2023-11-27T16:45:50.353Z,-0.99
2023-11-27T16:48:22.687Z,-0.92
2023-11-27T16:50:54.490Z,-0.83
2023-11-27T16:53:29.339Z,-1.25
2023-11-27T16:56:03.046Z,-1.01
2023-11-27T16:58:34.868Z,-0.75
2023-11-27T17:01:08.018Z,-0.98
2023-11-27T17:03:43.189Z,-0.86
2023-11-27T17:06:15.354Z,-0.75
2023-11-27T17:08:47.937Z,-0.93
2023-11-27T17:11:19.768Z,-0.59
2023-11-27T17:13:51.752Z,-0.91
2023-11-27T17:16:25.072Z,-0.75
2023-11-27T17:18:57.305Z,-0.61
2023-11-27T17:21:29.442Z,-0.53
2023-11-27T17:24:01.486Z,-0.47
2023-11-27T17:26:33.387Z,-0.58
2023-11-27T17:29:05.354Z,-0.51
2023-11-27T17:31:37.142Z,-0.64
2023-11-27T17:34:08.961Z,-0.80
2023-11-27T17:36:40.775Z,-0.57
2023-11-27T17:39:14.948Z,-0.60
2023-11-27T17:41:47.520Z,-0.72
2023-11-27T17:44:20.674Z,-0.69
2023-11-27T17:46:52.632Z,-0.61
2023-11-27T17:49:24.460Z,-0.62
2023-11-27T17:51:57.368Z,-0.52
2023-11-27T17:54:29.185Z,-0.53
2023-11-27T17:57:00.940Z,-0.72
2023-11-27T17:59:32.803Z,-0.56
2023-11-27T18:02:07.014Z,-0.50
2023-11-27T18:04:40.293Z,-0.51
2023-11-27T18:07:12.112Z,-0.55
2023-11-27T18:09:44.541Z,-0.58
2023-11-27T18:12:16.673Z,-0.55
2023-11-27T18:14:48.943Z,-0.44
2023-11-27T18:17:21.156Z,-0.74
2023-11-27T18:19:53.040Z,-0.68
2023-11-27T18:22:25.093Z,-0.62
2023-11-27T18:24:56.884Z,-0.75
2023-11-27T18:27:28.664Z,-0.86
2023-11-27T18:30:00.583Z,-0.99
2023-11-27T18:32:32.901Z,-0.70
2023-11-27T18:35:05.183Z,-0.68
2023-11-27T18:37:37.379Z,-0.57
2023-11-27T18:40:15.512Z,-0.42
2023-11-27T18:42:52.188Z,-0.48
2023-11-27T18:45:25.678Z,-0.40
2023-11-27T18:47:58.027Z,-0.45
2023-11-27T18:50:29.886Z,-0.54
2023-11-27T18:53:02.153Z,-0.34
2023-11-27T18:55:34.091Z,-0.30
2023-11-27T18:58:05.947Z,-0.61
2023-11-27T19:00:37.767Z,-0.39
2023-11-27T19:03:10.601Z,-0.31
2023-11-27T19:05:42.451Z,-0.43
2023-11-27T19:08:14.267Z,-0.57
2023-11-27T19:10:46.090Z,-0.34
2023-11-27T19:13:17.973Z,-0.39
2023-11-27T19:15:52.845Z,-0.47
2023-11-27T19:18:25.610Z,-0.41
2023-11-27T19:20:57.422Z,-0.34
2023-11-27T19:23:29.520Z,-0.46
2023-11-27T19:26:01.589Z,-0.37
2023-11-27T19:28:35.794Z,-0.47
2023-11-27T19:31:08.196Z,-0.61
2023-11-27T19:33:39.999Z,-0.71
2023-11-27T19:36:22.118Z,-0.87
2023-11-27T19:38:54.223Z,-0.60
2023-11-27T19:41:25.996Z,-0.62
2023-11-27T19:43:57.917Z,-0.83
2023-11-27T19:46:29.787Z,-0.71
2023-11-27T19:49:03.292Z,-0.55
2023-11-27T19:51:35.145Z,-0.56
2023-11-27T19:54:07.539Z,-0.59
2023-11-27T19:56:40.967Z,-0.49
2023-11-27T19:59:12.876Z,-0.53
2023-11-27T20:01:44.767Z,-0.68
2023-11-27T20:04:16.566Z,-0.66
2023-11-27T20:06:48.408Z,-0.67
2023-11-27T20:09:20.347Z,-0.70
2023-11-27T20:11:54.164Z,-0.63
2023-11-27T20:14:25.948Z,-0.68
2023-11-27T20:16:59.588Z,-0.69
2023-11-27T20:19:31.432Z,-0.76
2023-11-27T20:22:04.723Z,-0.90
2023-11-27T20:24:36.895Z,-0.63
2023-11-27T20:27:08.687Z,-0.63
2023-11-27T20:29:46.280Z,-0.87
2023-11-27T20:32:18.184Z,-0.93
2023-11-27T20:34:50.224Z,-0.74
2023-11-27T20:37:22.071Z,-0.72
2023-11-27T20:39:54.316Z,-0.72
2023-11-27T20:42:26.086Z,-0.78
2023-11-27T20:44:57.847Z,-0.86
2023-11-27T20:47:30.499Z,-0.97
2023-11-27T20:50:02.484Z,-1.09
2023-11-27T20:52:34.590Z,-1.06
2023-11-27T20:55:08.439Z,-1.18
2023-11-27T20:57:41.580Z,-0.89
2023-11-27T21:00:13.796Z,-0.99
2023-11-27T21:02:46.557Z,-0.95
2023-11-27T21:05:18.349Z,-0.86
2023-11-27T21:07:50.165Z,-1.08
2023-11-27T21:10:22.312Z,-0.84
2023-11-27T21:12:54.335Z,-0.79
2023-11-27T21:15:26.789Z,-0.80
2023-11-27T21:17:58.833Z,-0.73
2023-11-27T21:20:30.761Z,-0.74
2023-11-27T21:23:02.634Z,-1.03
2023-11-27T21:25:35.073Z,-1.00
2023-11-27T21:28:06.934Z,-0.73
2023-11-27T21:30:38.994Z,-0.94
2023-11-27T21:33:10.841Z,-0.87
2023-11-27T21:35:42.725Z,-0.85
2023-11-27T21:38:14.562Z,-0.94
2023-11-27T21:40:46.448Z,-0.84
2023-11-27T21:43:19.207Z,-0.80
2023-11-27T21:45:51.094Z,-0.92
2023-11-27T21:48:23.486Z,-0.88
2023-11-27T21:50:55.617Z,-0.93
2023-11-27T21:53:27.377Z,-0.76
2023-11-27T21:55:59.253Z,-0.97
2023-11-27T21:58:31.091Z,-0.86
2023-11-27T22:01:15.519Z,-0.96
2023-11-27T22:03:49.582Z,-1.04
2023-11-27T22:06:21.433Z,-0.97
2023-11-27T22:08:53.193Z,-0.79
2023-11-27T22:11:25.216Z,-1.01
2023-11-27T22:13:57.123Z,-0.84
2023-11-27T22:16:29.119Z,-1.01
2023-11-27T22:19:01.449Z,-0.89
2023-11-27T22:21:33.405Z,-0.89
2023-11-27T22:24:05.908Z,-0.86
2023-11-27T22:26:42.260Z,-0.85
2023-11-27T22:29:14.076Z,-1.07
2023-11-27T22:31:45.932Z,-0.99
2023-11-27T22:34:18.882Z,-0.88
2023-11-27T22:36:50.669Z,-0.91
2023-11-27T22:39:25.151Z,-1.28
2023-11-27T22:41:56.962Z,-1.15
2023-11-27T22:44:28.755Z,-1.02
2023-11-27T22:47:00.918Z,-1.22
2023-11-27T22:49:32.733Z,-1.28
2023-11-27T22:52:04.785Z,-1.23
2023-11-27T22:54:42.997Z,-1.25
2023-11-27T22:57:15.243Z,-0.96
2023-11-27T22:59:47.240Z,-0.91
2023-11-27T23:02:19.441Z,-1.26
2023-11-27T23:04:51.400Z,-0.97
2023-11-27T23:07:23.423Z,-1.02
2023-11-27T23:09:55.293Z,-0.98
2023-11-27T23:12:27.654Z,-1.03
2023-11-27T23:14:59.759Z,-1.05
2023-11-27T23:17:31.642Z,-0.95
2023-11-27T23:20:03.615Z,-0.94
2023-11-27T23:22:35.734Z,-1.12
2023-11-27T23:25:07.830Z,-1.02
2023-11-27T23:27:39.632Z,-1.01
2023-11-27T23:30:12.163Z,-1.01
2023-11-27T23:32:44.328Z,-0.97
2023-11-27T23:35:16.139Z,-1.06
2023-11-27T23:37:48.416Z,-1.06
2023-11-27T23:40:20.348Z,-0.89
2023-11-27T23:42:52.170Z,-1.27
2023-11-27T23:45:23.939Z,-1.37
2023-11-27T23:47:56.958Z,-1.12
2023-11-27T23:50:28.780Z,-0.96
2023-11-27T23:53:06.476Z,-1.12
2023-11-27T23:55:40.274Z,-1.00
2023-11-27T23:58:12.393Z,-1.17
